Time;durP1;ratioP1;P1;durP2;ratioP2;P2;SDS_P1;SDS_P2;PMS_P1;PMS_P2;Temp;Humidity;BMP_temperature;BMP_pressure;BME280_temperature;BME280_humidity;BME280_pressure;Samples;Min_cycle;Max_cycle;Signal;HPM_P1;HPM_P2
2021/08/14 00:00:41;;;;;;;41.45;19.58;;;18.40;99.90;;;;;;4902659;29;20433;-96
2021/08/14 00:03:08;;;;;;;35.28;18.20;;;18.50;99.90;;;;;;4903390;29;20429;-95
2021/08/14 00:05:38;;;;;;;27.20;14.98;;;18.60;99.90;;;;;;4922455;29;20417;-95
2021/08/14 00:08:05;;;;;;;20.17;12.50;;;18.60;99.90;;;;;;4919580;29;20492;-96
2021/08/14 00:10:33;;;;;;;24.02;12.50;;;18.70;99.90;;;;;;4904457;29;20439;-95
2021/08/14 00:13:02;;;;;;;69.68;18.73;;;18.60;99.90;;;;;;4906340;29;20928;-95
2021/08/14 00:15:29;;;;;;;0.85;0.55;;;18.40;99.90;;;;;;4902860;29;20502;-95
2021/08/14 00:17:57;;;;;;;0.20;0.20;;;18.30;99.90;;;;;;4903882;29;20933;-96
2021/08/14 00:20:24;;;;;;;0.50;0.50;;;18.40;99.90;;;;;;4903286;29;20439;-96
2021/08/14 00:22:51;;;;;;;0.30;0.30;;;18.40;99.90;;;;;;4904381;29;20452;-96
2021/08/14 00:25:19;;;;;;;2.80;1.00;;;18.30;99.90;;;;;;4908239;29;20433;-96
2021/08/14 00:27:47;;;;;;;0.93;0.70;;;18.30;99.90;;;;;;4890754;29;20441;-96
2021/08/14 00:30:14;;;;;;;0.63;0.63;;;18.10;99.90;;;;;;4909742;29;20449;-96
2021/08/14 00:32:42;;;;;;;0.10;0.10;;;18.00;99.90;;;;;;4905187;29;20432;-96
2021/08/14 00:35:11;;;;;;;0.22;0.22;;;18.00;99.90;;;;;;4903583;29;20429;-96
2021/08/14 00:37:38;;;;;;;0.40;0.40;;;17.90;99.90;;;;;;4903324;29;20456;-96
2021/08/14 00:40:06;;;;;;;1.67;1.15;;;17.90;99.90;;;;;;4903425;29;20433;-96
2021/08/14 00:42:35;;;;;;;1.08;0.70;;;17.90;99.90;;;;;;4903670;29;20436;-96
2021/08/14 00:45:03;;;;;;;0.40;0.40;;;18.10;99.90;;;;;;4904957;29;20436;-96
2021/08/14 00:47:32;;;;;;;0.57;0.57;;;18.10;99.90;;;;;;4922390;29;20937;-96
2021/08/14 00:49:59;;;;;;;4.75;1.67;;;18.00;99.90;;;;;;4906888;29;20515;-96
2021/08/14 00:52:26;;;;;;;0.30;0.30;;;18.00;99.90;;;;;;4906853;29;20425;-96
2021/08/14 00:54:54;;;;;;;2.25;0.65;;;18.10;99.90;;;;;;4907801;29;20438;-94
2021/08/14 00:57:21;;;;;;;0.30;0.30;;;18.20;99.90;;;;;;4908087;29;20432;-94
2021/08/14 00:59:50;;;;;;;16.75;1.05;;;18.30;99.90;;;;;;4908191;29;20433;-96
2021/08/14 01:02:18;;;;;;;1.15;0.55;;;18.30;99.90;;;;;;4908404;29;20432;-96
2021/08/14 01:04:49;;;;;;;0.50;0.50;;;18.30;99.90;;;;;;4907388;29;20433;-96
2021/08/14 01:07:18;;;;;;;0.40;0.40;;;18.30;99.90;;;;;;4906823;29;20436;-96
2021/08/14 01:09:47;;;;;;;0.53;0.53;;;18.30;99.90;;;;;;4906622;29;20453;-96
2021/08/14 01:12:16;;;;;;;0.63;0.63;;;18.30;99.90;;;;;;4905256;29;20519;-96
2021/08/14 01:14:46;;;;;;;1.50;0.80;;;18.40;99.90;;;;;;4905518;29;20520;-94
2021/08/14 01:17:14;;;;;;;1.00;0.50;;;18.40;99.90;;;;;;4904863;29;20433;-96
2021/08/14 01:19:47;;;;;;;0.75;0.75;;;18.30;99.90;;;;;;4903822;29;20436;-94
2021/08/14 01:22:15;;;;;;;0.30;0.30;;;18.40;99.90;;;;;;4904072;29;20429;-96
2021/08/14 01:24:46;;;;;;;5.65;0.90;;;18.30;99.90;;;;;;4904303;29;20445;-94
2021/08/14 01:27:14;;;;;;;0.63;0.63;;;18.30;99.90;;;;;;4903269;29;20433;-96
2021/08/14 01:29:41;;;;;;;1.23;0.68;;;18.30;99.90;;;;;;4903701;29;20445;-96
2021/08/14 01:32:09;;;;;;;3.00;0.70;;;18.20;99.90;;;;;;4903584;29;20435;-96
2021/08/14 01:34:38;;;;;;;2.53;1.00;;;18.20;99.90;;;;;;4903009;29;21020;-96
2021/08/14 01:37:06;;;;;;;0.43;0.43;;;18.10;99.90;;;;;;4904420;29;20445;-96
2021/08/14 01:39:33;;;;;;;0.45;0.45;;;18.10;99.90;;;;;;4903250;29;20521;-96
2021/08/14 01:42:05;;;;;;;0.90;0.90;;;18.20;99.90;;;;;;4902586;29;20443;-96
2021/08/14 01:44:34;;;;;;;1.35;1.00;;;18.30;99.90;;;;;;4903453;29;20476;-95
2021/08/14 01:47:02;;;;;;;0.65;0.65;;;18.30;99.90;;;;;;4921950;29;20425;-95
2021/08/14 01:49:29;;;;;;;1.58;0.55;;;18.10;99.90;;;;;;4918380;29;20447;-96
2021/08/14 01:51:57;;;;;;;0.65;0.65;;;18.20;99.90;;;;;;4903612;29;20763;-96
2021/08/14 01:54:24;;;;;;;0.60;0.60;;;18.30;99.90;;;;;;4903417;29;20433;-96
2021/08/14 01:56:51;;;;;;;0.55;0.55;;;18.40;99.90;;;;;;4903321;29;20439;-96
2021/08/14 01:59:19;;;;;;;0.65;0.65;;;18.40;99.90;;;;;;4903102;29;20436;-95
2021/08/14 02:01:46;;;;;;;1.20;1.05;;;18.40;99.90;;;;;;4903676;29;20505;-95
2021/08/14 02:04:14;;;;;;;0.68;0.68;;;18.30;99.90;;;;;;4906339;29;20429;-96
2021/08/14 02:06:41;;;;;;;0.50;0.50;;;18.30;99.90;;;;;;4907279;29;20461;-96
2021/08/14 02:09:09;;;;;;;0.80;0.73;;;18.40;99.90;;;;;;4906062;29;20445;-94
2021/08/14 02:11:37;;;;;;;5.00;0.70;;;18.40;99.90;;;;;;4906683;29;20838;-96
2021/08/14 02:14:05;;;;;;;1.10;0.40;;;18.30;99.90;;;;;;4906774;29;20949;-96
2021/08/14 02:16:33;;;;;;;1.40;1.10;;;18.30;99.90;;;;;;4906675;29;20433;-96
2021/08/14 02:19:01;;;;;;;0.50;0.50;;;18.40;99.90;;;;;;4908117;29;20504;-96
2021/08/14 02:21:29;;;;;;;0.50;0.40;;;18.40;99.90;;;;;;4908869;29;20435;-96
2021/08/14 02:23:56;;;;;;;0.32;0.32;;;18.40;99.90;;;;;;4908137;29;20477;-96
2021/08/14 02:26:24;;;;;;;0.50;0.50;;;18.40;99.90;;;;;;4908482;29;20432;-94
2021/08/14 02:28:52;;;;;;;0.30;0.30;;;18.40;99.90;;;;;;4907748;29;20520;-96
2021/08/14 02:31:22;;;;;;;0.45;0.45;;;18.40;99.90;;;;;;4908730;29;20433;-96
2021/08/14 02:33:52;;;;;;;1.20;0.90;;;18.50;99.90;;;;;;4907981;29;21091;-95
2021/08/14 02:36:19;;;;;;;0.33;0.33;;;18.40;99.90;;;;;;4907739;29;20460;-96
2021/08/14 02:38:47;;;;;;;0.73;0.73;;;18.50;99.90;;;;;;4906374;29;20432;-96
2021/08/14 02:41:14;;;;;;;0.75;0.68;;;18.50;99.90;;;;;;4906748;29;20781;-94
2021/08/14 02:43:41;;;;;;;0.47;0.47;;;18.50;99.90;;;;;;4907255;29;20539;-96
2021/08/14 02:46:09;;;;;;;0.55;0.55;;;18.40;99.90;;;;;;4907103;29;20436;-94
2021/08/14 02:48:36;;;;;;;1.80;1.20;;;18.30;99.90;;;;;;4906570;29;20436;-95
2021/08/14 02:51:03;;;;;;;3.83;1.27;;;18.20;99.90;;;;;;4907867;29;20445;-96
2021/08/14 02:53:31;;;;;;;0.30;0.30;;;18.30;99.90;;;;;;4908792;29;20439;-96
2021/08/14 02:55:58;;;;;;;0.37;0.37;;;18.30;99.90;;;;;;4907894;29;20439;-94
2021/08/14 02:58:27;;;;;;;0.30;0.30;;;18.30;99.90;;;;;;4907261;29;20441;-96
2021/08/14 03:00:55;;;;;;;0.20;0.20;;;18.10;99.90;;;;;;4910116;29;20437;-94
2021/08/14 03:03:23;;;;;;;0.55;0.55;;;18.10;99.90;;;;;;4909205;29;20512;-96
2021/08/14 03:05:51;;;;;;;1.00;1.00;;;17.90;99.90;;;;;;4908302;29;20429;-96
2021/08/14 03:08:18;;;;;;;2.75;1.38;;;18.00;99.90;;;;;;4908752;29;20444;-96
2021/08/14 03:10:45;;;;;;;0.60;0.60;;;18.00;99.90;;;;;;4907681;29;20971;-96
2021/08/14 03:13:14;;;;;;;0.40;0.40;;;18.00;99.90;;;;;;4906986;29;20432;-95
2021/08/14 03:15:44;;;;;;;1.90;1.60;;;18.10;99.90;;;;;;4908910;29;20442;-96
2021/08/14 03:18:12;;;;;;;0.40;0.40;;;18.10;99.90;;;;;;4909033;29;20445;-95
2021/08/14 03:20:40;;;;;;;1.50;0.77;;;18.20;99.90;;;;;;4908713;29;20435;-96
2021/08/14 03:23:07;;;;;;;0.28;0.28;;;18.10;99.90;;;;;;4909283;29;20488;-94
2021/08/14 03:25:34;;;;;;;0.70;0.70;;;18.00;99.90;;;;;;4907702;29;20429;-96
2021/08/14 03:28:02;;;;;;;0.52;0.52;;;17.90;99.90;;;;;;4921717;29;20445;-95
2021/08/14 03:30:30;;;;;;;1.52;1.42;;;17.90;99.90;;;;;;4924835;29;20445;-96
2021/08/14 03:32:57;;;;;;;0.60;0.60;;;18.00;99.90;;;;;;4910309;29;20492;-96
2021/08/14 03:35:24;;;;;;;0.80;0.80;;;18.00;99.90;;;;;;4908743;29;20489;-96
2021/08/14 03:37:51;;;;;;;0.30;0.30;;;17.90;99.90;;;;;;4908474;29;20433;-96
2021/08/14 03:40:19;;;;;;;0.40;0.40;;;18.00;99.90;;;;;;4910938;29;20440;-96
2021/08/14 03:42:46;;;;;;;2.70;1.20;;;17.90;99.90;;;;;;4910405;29;20439;-95
2021/08/14 03:45:14;;;;;;;0.30;0.30;;;17.90;99.90;;;;;;4912069;29;20505;-96
2021/08/14 03:47:43;;;;;;;2.00;1.10;;;17.90;99.90;;;;;;4911468;29;20429;-96
2021/08/14 03:50:11;;;;;;;0.40;0.30;;;17.90;99.90;;;;;;4909547;29;20456;-96
2021/08/14 03:52:38;;;;;;;0.40;0.40;;;18.00;99.90;;;;;;4909044;29;20429;-96
2021/08/14 03:55:08;;;;;;;11.13;1.10;;;18.10;99.90;;;;;;4911287;29;20443;-96
2021/08/14 03:57:36;;;;;;;0.70;0.70;;;18.00;99.90;;;;;;4908698;29;20448;-95
2021/08/14 04:00:06;;;;;;;0.22;0.22;;;18.10;99.90;;;;;;4926476;29;20431;-96
2021/08/14 04:02:41;;;;;;;0.15;0.15;;;18.10;99.90;;;;;;4911532;29;20441;-94
2021/08/14 04:05:09;;;;;;;0.30;0.30;;;18.20;99.90;;;;;;4911082;29;20437;-94
2021/08/14 04:07:38;;;;;;;0.50;0.50;;;18.30;99.90;;;;;;4930350;29;20425;-96
2021/08/14 04:10:08;;;;;;;1.80;0.85;;;18.30;99.90;;;;;;4912003;29;20449;-95
2021/08/14 04:12:35;;;;;;;1.50;0.63;;;18.40;99.90;;;;;;4912280;29;20929;-94
2021/08/14 04:15:06;;;;;;;1.20;1.10;;;18.50;99.90;;;;;;4911984;29;20457;-95
2021/08/14 04:17:36;;;;;;;1.52;0.55;;;18.70;99.90;;;;;;4910974;29;20448;-96
2021/08/14 04:20:05;;;;;;;0.30;0.30;;;18.60;99.90;;;;;;4909876;29;20443;-96
2021/08/14 04:22:32;;;;;;;0.57;0.57;;;18.60;99.90;;;;;;4910194;29;20493;-96
2021/08/14 04:25:01;;;;;;;2.30;1.27;;;18.50;99.90;;;;;;4925563;29;20517;-96
2021/08/14 04:27:28;;;;;;;0.30;0.30;;;18.60;99.90;;;;;;4892182;29;21003;-96
2021/08/14 04:29:55;;;;;;;2.30;0.60;;;18.60;99.90;;;;;;4908760;29;20437;-96
2021/08/14 04:32:22;;;;;;;1.20;1.10;;;18.50;99.90;;;;;;4909464;29;20440;-96
2021/08/14 04:34:50;;;;;;;2.20;0.83;;;18.50;99.90;;;;;;4908628;29;20437;-96
2021/08/14 04:37:17;;;;;;;1.27;1.07;;;18.50;99.90;;;;;;4908803;29;20504;-96
2021/08/14 04:39:44;;;;;;;0.88;0.47;;;18.30;99.90;;;;;;4908788;29;20440;-96
2021/08/14 04:42:11;;;;;;;0.50;0.50;;;18.10;99.90;;;;;;4908175;29;20929;-96
2021/08/14 04:44:38;;;;;;;1.27;0.95;;;18.40;99.90;;;;;;4908581;29;20502;-96
2021/08/14 04:47:06;;;;;;;0.57;0.57;;;18.50;99.90;;;;;;4892550;29;20433;-96
2021/08/14 04:49:34;;;;;;;6.13;3.00;;;18.40;99.90;;;;;;4924486;29;20436;-96
2021/08/14 04:52:01;;;;;;;5.20;1.40;;;18.50;99.90;;;;;;4908329;29;20433;-96
2021/08/14 04:54:29;;;;;;;0.33;0.33;;;18.50;99.90;;;;;;4908747;29;20429;-96
2021/08/14 04:56:56;;;;;;;0.27;0.27;;;18.50;99.90;;;;;;4908057;29;20443;-96
2021/08/14 04:59:24;;;;;;;0.75;0.43;;;18.50;99.90;;;;;;4908273;29;20429;-96
2021/08/14 05:01:51;;;;;;;0.70;0.60;;;18.50;99.90;;;;;;4892269;29;20492;-96
2021/08/14 05:04:19;;;;;;;0.30;0.30;;;18.60;99.90;;;;;;4907709;29;20429;-96
2021/08/14 05:06:46;;;;;;;1.10;1.00;;;18.60;99.90;;;;;;4906661;29;20437;-96
2021/08/14 05:09:14;;;;;;;1.30;1.00;;;18.80;99.90;;;;;;4917335;29;20418;-96
2021/08/14 05:11:43;;;;;;;1.25;0.85;;;19.00;99.90;;;;;;4940174;29;20449;-96
2021/08/14 05:14:14;;;;;;;1.20;1.10;;;19.00;99.90;;;;;;4909065;29;20432;-96
2021/08/14 05:16:45;;;;;;;1.67;1.17;;;19.00;99.90;;;;;;4929132;29;20429;-96
2021/08/14 05:19:13;;;;;;;2.20;1.10;;;19.00;99.90;;;;;;4909041;29;20448;-96
2021/08/14 05:21:40;;;;;;;0.38;0.38;;;18.80;99.90;;;;;;4906730;29;20429;-96
2021/08/14 05:24:09;;;;;;;0.93;0.82;;;18.80;99.90;;;;;;4890567;29;20439;-96
2021/08/14 05:26:36;;;;;;;1.10;0.80;;;18.70;99.90;;;;;;4908085;29;20429;-95
2021/08/14 05:29:13;;;;;;;0.40;0.40;;;18.80;99.90;;;;;;4907156;29;20437;-96
2021/08/14 05:31:44;;;;;;;1.35;0.95;;;18.90;99.90;;;;;;4904956;29;20479;-96
2021/08/14 05:34:30;;;;;;;0.93;0.90;;;19.00;99.90;;;;;;4907426;29;20449;-96
2021/08/14 05:48:36;;;;;;;;;;;;;;;;;;;;;
2021/08/14 06:22:56;;;;;;;1.15;0.75;;;18.40;99.90;;;;;;5785089;22;12463066;-96
2021/08/14 06:57:07;;;;;;;0.50;0.50;;;19.50;99.90;;;;;;6344738;22;20381;-96
2021/08/14 07:59:30;;;;;;;0.65;0.65;;;22.00;99.90;;;;;;6312521;22;20375;-96
2021/08/14 08:02:06;;;;;;;1.07;0.83;;;22.00;99.90;;;;;;6168256;23;20393;-96
2021/08/14 08:09:25;;;;;;;0.82;0.82;;;21.90;99.90;;;;;;6044981;23;20381;-96
2021/08/14 08:12:29;;;;;;;2.38;1.55;;;22.00;99.90;;;;;;6021985;23;20453;-95
2021/08/14 08:15:07;;;;;;;6.85;1.15;;;22.00;99.90;;;;;;6047305;23;20397;-96
2021/08/14 08:17:48;;;;;;;2.70;0.73;;;22.00;99.90;;;;;;6019559;23;20454;-96
2021/08/14 08:20:44;;;;;;;7.53;1.47;;;22.10;99.90;;;;;;6016619;23;20457;-96
2021/08/14 08:23:32;;;;;;;0.80;0.70;;;22.10;99.90;;;;;;6040382;23;20401;-95
2021/08/14 08:25:59;;;;;;;2.08;1.10;;;22.10;99.90;;;;;;6016510;23;20998;-96
2021/08/14 08:28:34;;;;;;;1.65;1.33;;;22.40;99.90;;;;;;6017083;23;20759;-95
2021/08/14 08:31:03;;;;;;;5.90;1.27;;;22.60;99.90;;;;;;6031022;23;20421;-96
2021/08/14 08:33:31;;;;;;;0.50;0.50;;;22.70;99.90;;;;;;6065252;23;20382;-96
2021/08/14 08:35:58;;;;;;;0.82;0.82;;;23.10;99.90;;;;;;6055791;23;20485;-96
2021/08/14 08:38:28;;;;;;;0.70;0.63;;;23.40;99.90;;;;;;6062707;23;20402;-96
2021/08/14 08:40:56;;;;;;;0.90;0.80;;;23.50;99.90;;;;;;6072345;23;20390;-96
2021/08/14 08:43:23;;;;;;;1.02;0.85;;;23.70;99.90;;;;;;6071819;23;20400;-96
2021/08/14 08:45:53;;;;;;;1.30;1.20;;;23.70;99.90;;;;;;6198557;22;20392;-96
2021/08/14 08:48:29;;;;;;;1.92;0.73;;;23.80;99.90;;;;;;6250969;22;20398;-96
2021/08/14 08:51:03;;;;;;;2.13;0.90;;;23.90;99.90;;;;;;6252002;22;20391;-96
2021/08/14 08:53:39;;;;;;;3.23;1.53;;;23.50;99.90;;;;;;6251989;22;20384;-96
2021/08/14 08:56:33;;;;;;;1.63;1.53;;;23.60;99.90;;;;;;6253997;22;20422;-95
2021/08/14 08:59:01;;;;;;;1.40;1.10;;;23.80;99.90;;;;;;6251313;22;20407;-96
2021/08/14 09:01:32;;;;;;;1.17;0.82;;;24.10;99.90;;;;;;6276114;22;20411;-95
2021/08/14 09:04:26;;;;;;;0.80;0.80;;;24.40;99.90;;;;;;6251139;22;20384;-96
2021/08/14 09:06:56;;;;;;;3.10;1.40;;;24.40;99.90;;;;;;6250388;22;20422;-95
2021/08/14 09:09:29;;;;;;;1.23;1.13;;;24.40;99.90;;;;;;6251335;22;20406;-96
2021/08/14 09:12:03;;;;;;;5.80;2.50;;;24.20;99.90;;;;;;6250572;22;20459;-95
2021/08/14 09:14:49;;;;;;;12.32;1.67;;;24.10;99.90;;;;;;6251609;22;20379;-94
2021/08/14 09:17:18;;;;;;;0.50;0.50;;;24.00;99.90;;;;;;6250630;22;20384;-96
2021/08/14 09:19:45;;;;;;;1.80;0.80;;;24.10;99.90;;;;;;6250309;22;20384;-96
2021/08/14 09:22:20;;;;;;;0.87;0.87;;;24.20;99.90;;;;;;6253342;22;20746;-96
2021/08/14 09:24:47;;;;;;;1.80;1.13;;;24.30;99.90;;;;;;6249843;22;20383;-96
2021/08/14 09:27:17;;;;;;;1.27;1.17;;;24.50;99.90;;;;;;6250650;22;20937;-94
2021/08/14 09:29:46;;;;;;;3.45;1.45;;;24.60;99.90;;;;;;6249943;22;20415;-95
2021/08/14 09:32:15;;;;;;;0.70;0.70;;;24.60;99.90;;;;;;6250660;22;20439;-95
2021/08/14 09:34:46;;;;;;;0.80;0.70;;;24.60;99.90;;;;;;6251045;22;20367;-95
2021/08/14 09:37:17;;;;;;;6.87;1.77;;;24.60;99.90;;;;;;6250492;22;20384;-94
2021/08/14 09:39:59;;;;;;;4.00;0.90;;;24.70;99.90;;;;;;6249456;22;20717;-95
2021/08/14 09:42:27;;;;;;;1.45;0.98;;;24.70;99.90;;;;;;6250296;22;20387;-96
2021/08/14 09:45:16;;;;;;;2.00;1.20;;;24.70;99.90;;;;;;6250366;22;20436;-95
2021/08/14 09:47:51;;;;;;;1.85;1.38;;;24.50;99.90;;;;;;6251056;22;20445;-94
2021/08/14 09:50:40;;;;;;;0.45;0.45;;;24.50;99.90;;;;;;6255107;22;20384;-96
2021/08/14 09:53:24;;;;;;;0.38;0.38;;;25.20;99.90;;;;;;6254134;22;20861;-96
2021/08/14 09:56:09;;;;;;;0.95;0.93;;;25.90;99.90;;;;;;6252035;22;20411;-96
2021/08/14 09:58:40;;;;;;;12.90;1.10;;;26.10;99.90;;;;;;6251711;22;20407;-96
2021/08/14 10:01:08;;;;;;;2.60;0.80;;;25.90;99.90;;;;;;6250376;22;20384;-95
2021/08/14 10:03:36;;;;;;;1.17;0.73;;;26.00;99.90;;;;;;6251440;22;20708;-96
2021/08/14 10:06:10;;;;;;;0.40;0.40;;;26.00;99.90;;;;;;6250959;22;20388;-96
2021/08/14 10:08:39;;;;;;;0.93;0.50;;;25.70;99.90;;;;;;6252721;22;20387;-96
2021/08/14 10:11:13;;;;;;;0.70;0.70;;;25.40;99.90;;;;;;6253260;22;20381;-96
2021/08/14 10:13:50;;;;;;;0.50;0.50;;;25.40;99.90;;;;;;6262899;22;20392;-96
2021/08/14 10:16:32;;;;;;;4.68;1.02;;;25.10;99.90;;;;;;6211404;22;20405;-96
2021/08/14 10:19:00;;;;;;;0.75;0.75;;;24.90;99.90;;;;;;6255957;22;20434;-96
2021/08/14 10:21:28;;;;;;;0.40;0.40;;;25.10;99.90;;;;;;6254401;22;20488;-96
2021/08/14 10:23:56;;;;;;;0.20;0.20;;;25.30;99.90;;;;;;6252650;22;20888;-96
2021/08/14 10:26:29;;;;;;;3.90;0.73;;;25.10;99.90;;;;;;6253678;22;20496;-96
2021/08/14 10:28:57;;;;;;;1.65;0.68;;;25.10;99.90;;;;;;6256796;22;20396;-96
2021/08/14 10:31:36;;;;;;;0.45;0.45;;;25.30;99.90;;;;;;6276731;22;20438;-96
2021/08/14 10:34:13;;;;;;;3.97;0.97;;;25.20;99.90;;;;;;6278463;22;20418;-96
2021/08/14 10:36:46;;;;;;;3.13;1.45;;;25.40;99.90;;;;;;6277271;22;20380;-96
2021/08/14 10:39:24;;;;;;;3.77;1.93;;;25.50;99.90;;;;;;6251584;22;20390;-95
2021/08/14 10:42:05;;;;;;;0.50;0.50;;;25.30;99.90;;;;;;6275455;22;20412;-96
2021/08/14 10:44:56;;;;;;;3.90;0.70;;;25.10;99.90;;;;;;6254978;22;20391;-96
2021/08/14 10:47:33;;;;;;;3.00;0.80;;;25.10;99.90;;;;;;6253147;22;20428;-96
2021/08/14 10:50:05;;;;;;;0.50;0.50;;;25.30;99.90;;;;;;6277755;22;20385;-96
2021/08/14 10:52:37;;;;;;;2.22;1.13;;;25.50;99.90;;;;;;6253844;22;20411;-96
2021/08/14 10:55:06;;;;;;;0.45;0.45;;;25.60;99.90;;;;;;6258216;22;20400;-96
2021/08/14 10:57:53;;;;;;;3.30;1.08;;;25.60;99.90;;;;;;6259720;22;20400;-96
2021/08/14 11:00:25;;;;;;;0.63;0.52;;;25.50;99.90;;;;;;6260190;22;20384;-96
2021/08/14 11:03:17;;;;;;;0.35;0.35;;;25.30;99.90;;;;;;6253589;22;20391;-96
2021/08/14 11:06:37;;;;;;;1.30;0.80;;;25.10;99.90;;;;;;6259506;22;20461;-96
2021/08/14 11:13:36;;;;;;;0.47;0.47;;;25.40;99.90;;;;;;6183282;23;20412;-96
2021/08/14 11:20:22;;;;;;;1.05;0.65;;;26.10;99.90;;;;;;6189775;23;20786;-96
2021/08/14 11:26:13;;;;;;;0.47;0.47;;;26.10;99.90;;;;;;6103374;23;20398;-96
2021/08/14 11:28:54;;;;;;;0.70;0.70;;;25.90;99.90;;;;;;6085034;23;20474;-96
2021/08/14 11:32:00;;;;;;;0.90;0.75;;;25.90;99.90;;;;;;6269614;22;20709;-96
2021/08/14 11:34:43;;;;;;;0.52;0.45;;;25.90;99.90;;;;;;6348386;22;20436;-96
2021/08/14 11:37:12;;;;;;;7.65;0.75;;;26.20;99.90;;;;;;6352455;22;20368;-95
2021/08/14 11:39:54;;;;;;;0.82;0.60;;;26.40;99.90;;;;;;6352032;22;20399;-96
2021/08/14 11:42:36;;;;;;;0.43;0.43;;;26.80;99.90;;;;;;6356940;22;20446;-96
2021/08/14 11:45:12;;;;;;;0.63;0.57;;;27.10;99.90;;;;;;6354887;22;20380;-96
2021/08/14 11:47:45;;;;;;;2.97;1.58;;;27.20;99.90;;;;;;6347733;22;20399;-96
2021/08/14 11:50:18;;;;;;;2.85;1.13;;;27.20;99.90;;;;;;6349227;22;20375;-96
2021/08/14 11:53:00;;;;;;;0.47;0.47;;;27.50;99.90;;;;;;6350748;22;20458;-96
2021/08/14 11:55:32;;;;;;;1.52;1.02;;;27.30;99.90;;;;;;6393063;22;20386;-96
2021/08/14 11:58:00;;;;;;;0.50;0.50;;;26.90;99.90;;;;;;6371917;22;20363;-96
2021/08/14 12:00:39;;;;;;;0.20;0.20;;;26.40;99.90;;;;;;6348966;22;20740;-96
2021/08/14 12:03:26;;;;;;;0.30;0.30;;;26.20;99.90;;;;;;6356695;22;20407;-96
2021/08/14 12:06:15;;;;;;;4.27;0.77;;;26.60;99.90;;;;;;6353157;22;20391;-96
2021/08/14 12:08:48;;;;;;;0.57;0.57;;;27.00;99.90;;;;;;6347467;22;20390;-95
2021/08/14 12:11:24;;;;;;;0.80;0.67;;;27.30;99.90;;;;;;6345695;22;20375;-96
2021/08/14 12:14:18;;;;;;;0.57;0.57;;;27.70;99.90;;;;;;6340183;22;20487;-96
2021/08/14 12:17:03;;;;;;;2.50;0.50;;;28.20;99.90;;;;;;6323266;22;20384;-96
2021/08/14 12:19:32;;;;;;;1.00;0.90;;;28.70;99.90;;;;;;6340918;22;20389;-96
2021/08/14 12:22:07;;;;;;;5.95;1.20;;;29.10;99.90;;;;;;6343519;22;20681;-96
2021/08/14 12:24:36;;;;;;;2.20;0.30;;;29.20;99.90;;;;;;6348256;22;20464;-96
2021/08/14 12:27:26;;;;;;;2.63;0.88;;;29.10;99.90;;;;;;6321140;22;20416;-96
2021/08/14 12:29:54;;;;;;;9.65;1.25;;;28.90;99.90;;;;;;6340256;22;20401;-96
2021/08/14 12:32:42;;;;;;;1.33;0.77;;;29.10;99.90;;;;;;6344985;22;20381;-96
2021/08/14 12:35:32;;;;;;;3.15;0.88;;;29.40;99.90;;;;;;6353233;22;20407;-96
2021/08/14 12:38:07;;;;;;;1.23;1.05;;;29.60;99.90;;;;;;6356020;22;20360;-96
2021/08/14 12:40:41;;;;;;;1.00;0.80;;;29.80;99.90;;;;;;6354850;22;20411;-96
2021/08/14 12:43:41;;;;;;;0.80;0.80;;;29.70;99.90;;;;;;6353826;22;20452;-96
2021/08/14 12:46:24;;;;;;;0.47;0.47;;;29.70;99.90;;;;;;6325561;22;20444;-96
2021/08/14 12:49:22;;;;;;;1.17;0.93;;;29.30;99.90;;;;;;6351390;22;20388;-96
2021/08/14 12:52:05;;;;;;;0.52;0.50;;;28.80;99.90;;;;;;6347546;22;20381;-96
2021/08/14 12:54:58;;;;;;;0.52;0.52;;;28.90;99.90;;;;;;6353173;22;20400;-96
2021/08/14 12:57:47;;;;;;;2.33;1.42;;;28.30;99.90;;;;;;6327776;22;20850;-96
2021/08/14 13:00:21;;;;;;;1.20;0.90;;;27.90;99.90;;;;;;6349319;22;20377;-96
2021/08/14 13:03:26;;;;;;;0.40;0.40;;;28.00;99.90;;;;;;6352415;22;20380;-96
2021/08/14 13:06:07;;;;;;;1.73;0.82;;;28.80;99.90;;;;;;6325267;22;20406;-96
2021/08/14 13:08:41;;;;;;;12.57;6.30;;;29.50;99.90;;;;;;6354538;22;20404;-96
2021/08/14 13:11:43;;;;;;;12.00;6.57;;;29.40;99.90;;;;;;6353454;22;20373;-96
2021/08/14 13:14:11;;;;;;;13.43;6.70;;;29.50;99.90;;;;;;6343385;22;20416;-96
2021/08/14 13:16:42;;;;;;;16.42;6.38;;;30.00;99.90;;;;;;6346671;22;20385;-96
2021/08/14 13:19:19;;;;;;;15.02;6.60;;;30.60;99.90;;;;;;6327861;22;20387;-96
2021/08/14 13:22:03;;;;;;;12.82;6.63;;;30.50;98.90;;;;;;6355606;22;20471;-96
2021/08/14 13:24:42;;;;;;;18.80;7.03;;;30.70;98.70;;;;;;6356875;22;20367;-96
2021/08/14 13:27:40;;;;;;;11.15;6.15;;;30.70;99.90;;;;;;6355432;22;20381;-96
2021/08/14 13:30:13;;;;;;;18.55;6.72;;;30.80;99.30;;;;;;6325224;22;20385;-96
2021/08/14 13:33:19;;;;;;;11.77;6.40;;;31.00;99.90;;;;;;6313532;22;20398;-96
2021/08/14 13:35:51;;;;;;;14.23;6.47;;;30.90;98.60;;;;;;6298012;22;20434;-96
2021/08/14 13:38:19;;;;;;;15.57;6.00;;;31.00;97.80;;;;;;6306596;22;20413;-96
2021/08/14 13:40:58;;;;;;;14.35;6.40;;;31.00;98.80;;;;;;6299718;22;20433;-96
2021/08/14 13:43:54;;;;;;;14.73;6.68;;;31.20;99.30;;;;;;6299300;22;20369;-96
2021/08/14 13:46:22;;;;;;;14.35;5.85;;;31.70;98.40;;;;;;6315559;22;20450;-96
2021/08/14 13:48:52;;;;;;;12.70;5.88;;;31.90;95.00;;;;;;6294776;22;20382;-96
2021/08/14 13:51:34;;;;;;;12.50;5.75;;;32.00;94.10;;;;;;6278223;22;20367;-96
2021/08/14 13:54:09;;;;;;;16.20;6.10;;;31.80;93.80;;;;;;6296965;22;20386;-96
2021/08/14 13:59:38;;;;;;;15.10;6.40;;;31.50;92.80;;;;;;6293837;22;20457;-96
2021/08/14 14:02:46;;;;;;;16.25;5.93;;;31.20;93.50;;;;;;6297603;22;20455;-96
2021/08/14 14:05:31;;;;;;;13.87;5.97;;;31.40;93.90;;;;;;6271821;22;20369;-96
2021/08/14 14:08:12;;;;;;;13.93;6.03;;;31.20;93.50;;;;;;6268100;22;20416;-96
2021/08/14 14:10:42;;;;;;;14.85;6.50;;;31.20;93.70;;;;;;6268999;22;20365;-96
2021/08/14 14:13:45;;;;;;;15.27;6.20;;;31.30;95.80;;;;;;6296023;22;20391;-96
2021/08/14 14:19:25;;;;;;;12.00;6.28;;;30.90;94.00;;;;;;6294558;22;20376;-96
2021/08/14 14:22:28;;;;;;;13.90;5.70;;;31.30;92.70;;;;;;6290749;22;20435;-96
2021/08/14 14:25:06;;;;;;;14.93;6.23;;;31.30;94.20;;;;;;6242758;22;20380;-96
2021/08/14 14:28:04;;;;;;;13.02;5.90;;;31.50;93.70;;;;;;6216994;23;20393;-96
2021/08/14 14:36:28;;;;;;;12.75;5.55;;;31.70;90.50;;;;;;6370589;22;20400;-96
2021/08/14 14:41:42;;;;;;;10.85;5.40;;;31.80;90.60;;;;;;6342325;22;20364;-96
2021/08/14 14:48:13;;;;;;;11.90;5.38;;;32.20;86.00;;;;;;6329814;22;20417;-96
2021/08/14 14:51:10;;;;;;;11.27;5.18;;;31.80;85.30;;;;;;6305338;22;21327;-96
2021/08/14 14:53:54;;;;;;;11.45;5.57;;;32.10;86.80;;;;;;6361548;22;20377;-96
2021/08/14 14:56:34;;;;;;;14.13;5.50;;;32.20;83.80;;;;;;6320567;22;20445;-96
2021/08/14 14:59:09;;;;;;;13.55;5.68;;;32.20;84.90;;;;;;6303943;22;20746;-96
2021/08/14 15:01:51;;;;;;;16.35;5.57;;;32.40;84.70;;;;;;6331746;22;20376;-96
2021/08/14 15:04:19;;;;;;;13.93;5.53;;;32.60;86.20;;;;;;6320753;22;20369;-96
2021/08/14 15:06:48;;;;;;;12.55;5.70;;;32.90;87.90;;;;;;6324311;22;20385;-96
2021/08/14 15:09:25;;;;;;;13.77;5.60;;;33.50;85.90;;;;;;6325770;22;20381;-96
2021/08/14 15:11:55;;;;;;;17.33;5.30;;;33.50;88.10;;;;;;6321455;22;20420;-96
2021/08/14 15:14:25;;;;;;;14.00;5.53;;;33.40;81.60;;;;;;6323302;22;20381;-96
2021/08/14 15:16:53;;;;;;;12.63;5.60;;;33.40;82.40;;;;;;6331251;22;20364;-96
2021/08/14 15:19:21;;;;;;;14.63;5.43;;;33.40;83.80;;;;;;6340641;22;20419;-96
2021/08/14 15:21:56;;;;;;;10.27;5.13;;;33.40;80.30;;;;;;6336062;22;20396;-96
2021/08/14 15:24:46;;;;;;;10.60;5.20;;;32.90;78.00;;;;;;6374572;22;20410;-96
2021/08/14 15:27:44;;;;;;;15.20;5.50;;;32.90;78.90;;;;;;6390309;22;20379;-96
2021/08/14 15:30:29;;;;;;;14.15;5.00;;;32.70;81.60;;;;;;6230999;23;20399;-96
2021/08/14 15:32:58;;;;;;;10.98;5.18;;;32.30;80.50;;;;;;6231918;23;20410;-96
2021/08/14 15:35:36;;;;;;;11.13;5.55;;;32.40;80.80;;;;;;6209095;23;20394;-96
2021/08/14 15:38:26;;;;;;;11.50;5.20;;;32.50;80.50;;;;;;6222956;23;20376;-96
2021/08/14 15:40:53;;;;;;;12.18;5.60;;;32.50;82.10;;;;;;6201504;23;20387;-96
2021/08/14 15:43:20;;;;;;;12.23;5.30;;;32.70;79.40;;;;;;6208818;23;20388;-96
2021/08/14 15:45:48;;;;;;;10.90;5.20;;;32.50;80.00;;;;;;6204331;23;20388;-96
2021/08/14 15:48:17;;;;;;;11.05;5.50;;;32.30;77.20;;;;;;6202150;23;20438;-96
2021/08/14 15:51:09;;;;;;;10.40;5.47;;;32.20;86.80;;;;;;6231463;23;20380;-96
2021/08/14 15:53:36;;;;;;;11.18;5.45;;;32.20;80.60;;;;;;6207334;23;20391;-96
2021/08/14 15:56:05;;;;;;;9.43;5.63;;;32.00;83.60;;;;;;6202932;23;20421;-96
2021/08/14 15:58:34;;;;;;;11.07;5.60;;;32.10;82.10;;;;;;6205894;23;21070;-96
2021/08/14 16:01:03;;;;;;;14.30;5.93;;;32.40;81.10;;;;;;6207872;23;20447;-96
2021/08/14 16:03:49;;;;;;;10.50;5.55;;;32.30;80.10;;;;;;6231074;23;20404;-96
2021/08/14 16:06:18;;;;;;;16.88;5.82;;;32.00;79.60;;;;;;6183319;23;20387;-96
2021/08/14 16:08:58;;;;;;;12.95;5.88;;;32.00;82.70;;;;;;6209495;23;20387;-96